VOI3297 MMSM-MMTJ
Flight info
| Callsign | VOI3297 |
|---|---|
| Flight time | 3h 4m |
| Altitude | 34000 |
| Route | ATURO2D ATURO UT134 ZCL DCT IMOLI UQ104 AVRIL UJ3 TANRI TANRI1B |
| Aircraft | A321/M-SDE3FGHIRWY/LB1 |
Departure
| Time | 2026-04-20 01:45 |
|---|---|
| Airport | Felipe Ángeles International Airport (MMSM) |
Arrival
| Time | 2026-04-20 04:49 |
|---|---|
| Airport | General Abelardo L. Rodriguez International Airport (MMTJ) |
| Time | Latitude | Longitude | Altitude | Speed | Heading |
|---|---|---|---|---|---|
| 2026-04-20 01:18 | 19.73356 | -99.02279 | 7380 ft | 0 kts | 319° |
| 2026-04-20 01:36 | 19.73349 | -99.02272 | 7380 ft | 2 kts | 319° |
| 2026-04-20 01:36 | 19.73337 | -99.02261 | 7381 ft | 2 kts | 319° |
| 2026-04-20 01:37 | 19.73326 | -99.02251 | 7381 ft | 2 kts | 319° |
| 2026-04-20 01:37 | 19.73315 | -99.02241 | 7382 ft | 1 kts | 299° |
| 2026-04-20 01:37 | 19.73313 | -99.02226 | 7381 ft | 2 kts | 249° |
| 2026-04-20 01:37 | 19.73322 | -99.02213 | 7381 ft | 2 kts | 221° |
| 2026-04-20 01:38 | 19.73332 | -99.02201 | 7381 ft | 2 kts | 231° |
| 2026-04-20 01:38 | 19.73342 | -99.02189 | 7381 ft | 2 kts | 227° |
| 2026-04-20 01:38 | 19.73347 | -99.02183 | 7380 ft | 0 kts | 228° |
| 2026-04-20 01:41 | 19.73338 | -99.02193 | 7381 ft | 1 kts | 229° |
| 2026-04-20 01:41 | 19.73327 | -99.02206 | 7381 ft | 3 kts | 229° |
| 2026-04-20 01:41 | 19.73294 | -99.02225 | 7380 ft | 7 kts | 182° |
| 2026-04-20 01:41 | 19.73232 | -99.02183 | 7377 ft | 12 kts | 139° |
| 2026-04-20 01:42 | 19.73159 | -99.02190 | 7374 ft | 14 kts | 226° |
| 2026-04-20 01:42 | 19.73092 | -99.02271 | 7375 ft | 13 kts | 230° |
| 2026-04-20 01:42 | 19.73038 | -99.02338 | 7374 ft | 11 kts | 230° |
| 2026-04-20 01:42 | 19.72998 | -99.02387 | 7374 ft | 5 kts | 221° |
| 2026-04-20 01:43 | 19.72973 | -99.02396 | 7374 ft | 2 kts | 163° |
| 2026-04-20 01:43 | 19.72960 | -99.02387 | 7374 ft | 1 kts | 142° |
| 2026-04-20 01:43 | 19.72957 | -99.02384 | 7374 ft | 0 kts | 142° |
| 2026-04-20 01:43 | 19.72942 | -99.02371 | 7374 ft | 5 kts | 141° |
| 2026-04-20 01:44 | 19.72904 | -99.02338 | 7374 ft | 9 kts | 139° |
| 2026-04-20 01:44 | 19.72876 | -99.02299 | 7375 ft | 4 kts | 91° |
| 2026-04-20 01:44 | 19.72887 | -99.02275 | 7375 ft | 2 kts | 54° |
| 2026-04-20 01:44 | 19.72958 | -99.02185 | 7376 ft | 40 kts | 49° |
| 2026-04-20 01:45 | 19.73284 | -99.01787 | 7372 ft | 101 kts | 49° |
| 2026-04-20 01:45 | 19.73863 | -99.01077 | 7385 ft | 151 kts | 49° |
| 2026-04-20 01:45 | 19.74658 | -99.00111 | 7423 ft | 189 kts | 49° |
| 2026-04-20 01:45 | 19.75483 | -98.99047 | 8029 ft | 185 kts | 51° |
| 2026-04-20 01:46 | 19.76294 | -98.98010 | 8621 ft | 186 kts | 51° |
| 2026-04-20 01:46 | 19.77135 | -98.96983 | 9242 ft | 181 kts | 49° |
| 2026-04-20 01:46 | 19.77997 | -98.96057 | 9649 ft | 177 kts | 44° |
| 2026-04-20 01:46 | 19.79017 | -98.95244 | 9846 ft | 186 kts | 33° |
| 2026-04-20 01:47 | 19.80182 | -98.94595 | 10029 ft | 196 kts | 30° |
| 2026-04-20 01:47 | 19.81400 | -98.93854 | 10222 ft | 204 kts | 34° |
| 2026-04-20 01:47 | 19.82626 | -98.93020 | 10417 ft | 214 kts | 35° |
| 2026-04-20 01:47 | 19.83902 | -98.92127 | 10615 ft | 224 kts | 35° |
| 2026-04-20 01:48 | 19.85220 | -98.91193 | 10815 ft | 234 kts | 35° |
| 2026-04-20 01:48 | 19.86699 | -98.90380 | 11002 ft | 246 kts | 20° |
| 2026-04-20 01:48 | 19.88451 | -98.90080 | 11111 ft | 265 kts | 4° |
| 2026-04-20 01:48 | 19.90366 | -98.90033 | 11362 ft | 277 kts | 2° |
| 2026-04-20 01:49 | 19.92336 | -98.90005 | 11602 ft | 290 kts | 2° |
| 2026-04-20 01:49 | 19.94416 | -98.89973 | 11835 ft | 303 kts | 2° |
| 2026-04-20 01:49 | 19.96561 | -98.89934 | 12067 ft | 315 kts | 2° |
| 2026-04-20 01:49 | 19.98804 | -98.89888 | 12286 ft | 328 kts | 1° |
| 2026-04-20 01:50 | 20.01128 | -98.89837 | 12498 ft | 340 kts | 1° |
| 2026-04-20 01:50 | 20.03545 | -98.89782 | 12811 ft | 347 kts | 1° |
| 2026-04-20 01:50 | 20.05961 | -98.89725 | 13250 ft | 350 kts | 0° |
| 2026-04-20 01:50 | 20.08445 | -98.89726 | 13664 ft | 353 kts | 354° |
| 2026-04-20 01:51 | 20.10778 | -98.90526 | 14001 ft | 356 kts | 327° |
| 2026-04-20 01:51 | 20.12677 | -98.92265 | 14461 ft | 356 kts | 314° |
| 2026-04-20 01:51 | 20.14375 | -98.94154 | 14855 ft | 359 kts | 313° |
| 2026-04-20 01:51 | 20.16135 | -98.96100 | 15263 ft | 362 kts | 314° |
| 2026-04-20 01:52 | 20.17909 | -98.98000 | 15719 ft | 363 kts | 315° |
| 2026-04-20 01:52 | 20.19716 | -98.99886 | 16144 ft | 365 kts | 315° |
| 2026-04-20 01:52 | 20.21531 | -99.01749 | 16548 ft | 367 kts | 316° |
| 2026-04-20 01:52 | 20.23388 | -99.03640 | 16980 ft | 369 kts | 316° |
| 2026-04-20 01:53 | 20.25245 | -99.05524 | 17356 ft | 372 kts | 316° |
| 2026-04-20 01:53 | 20.27133 | -99.07436 | 17743 ft | 374 kts | 316° |
| 2026-04-20 01:53 | 20.29034 | -99.09354 | 18133 ft | 376 kts | 316° |
| 2026-04-20 01:53 | 20.30931 | -99.11269 | 18524 ft | 378 kts | 316° |
| 2026-04-20 01:54 | 20.32852 | -99.13208 | 18925 ft | 380 kts | 316° |
| 2026-04-20 01:54 | 20.34762 | -99.15140 | 19312 ft | 381 kts | 315° |
| 2026-04-20 01:54 | 20.36696 | -99.17097 | 19695 ft | 383 kts | 315° |
| 2026-04-20 01:54 | 20.38627 | -99.19053 | 20085 ft | 385 kts | 315° |
| 2026-04-20 01:55 | 20.40568 | -99.21018 | 20470 ft | 386 kts | 315° |
| 2026-04-20 01:55 | 20.42511 | -99.22986 | 20840 ft | 387 kts | 315° |
| 2026-04-20 01:55 | 20.44477 | -99.24952 | 21194 ft | 389 kts | 316° |
| 2026-04-20 01:55 | 20.46525 | -99.26841 | 21570 ft | 391 kts | 317° |
| 2026-04-20 01:56 | 20.48622 | -99.28733 | 21908 ft | 393 kts | 317° |
| 2026-04-20 01:56 | 20.50726 | -99.30624 | 22226 ft | 395 kts | 317° |
| 2026-04-20 01:56 | 20.52816 | -99.32507 | 22555 ft | 397 kts | 317° |
| 2026-04-20 01:56 | 20.54937 | -99.34418 | 22881 ft | 399 kts | 317° |
| 2026-04-20 01:57 | 20.57059 | -99.36332 | 23223 ft | 400 kts | 317° |
| 2026-04-20 01:57 | 20.59185 | -99.38251 | 23556 ft | 402 kts | 317° |
| 2026-04-20 01:57 | 20.61341 | -99.40197 | 23890 ft | 403 kts | 317° |
| 2026-04-20 01:57 | 20.63469 | -99.42119 | 24221 ft | 404 kts | 317° |
| 2026-04-20 01:58 | 20.65632 | -99.44073 | 24543 ft | 405 kts | 316° |
| 2026-04-20 01:58 | 20.67767 | -99.46002 | 24871 ft | 406 kts | 316° |
| 2026-04-20 01:58 | 20.69939 | -99.47967 | 25184 ft | 407 kts | 316° |
| 2026-04-20 01:58 | 20.72075 | -99.49900 | 25559 ft | 406 kts | 316° |
| 2026-04-20 01:59 | 20.74259 | -99.51875 | 25898 ft | 406 kts | 316° |
| 2026-04-20 01:59 | 20.76412 | -99.53824 | 26192 ft | 407 kts | 316° |
| 2026-04-20 01:59 | 20.78581 | -99.55789 | 26469 ft | 408 kts | 316° |
| 2026-04-20 01:59 | 20.80736 | -99.57745 | 26732 ft | 410 kts | 316° |
| 2026-04-20 02:00 | 20.82924 | -99.59729 | 27004 ft | 411 kts | 316° |
| 2026-04-20 02:00 | 20.85105 | -99.61708 | 27271 ft | 412 kts | 316° |
| 2026-04-20 02:00 | 20.87280 | -99.63684 | 27534 ft | 414 kts | 316° |
| 2026-04-20 02:00 | 20.89509 | -99.65708 | 27795 ft | 415 kts | 315° |
| 2026-04-20 02:01 | 20.91689 | -99.67689 | 28066 ft | 416 kts | 315° |
| 2026-04-20 02:01 | 20.93905 | -99.69703 | 28330 ft | 417 kts | 315° |
| 2026-04-20 02:01 | 20.96129 | -99.71725 | 28584 ft | 418 kts | 315° |
| 2026-04-20 02:01 | 20.98338 | -99.73734 | 28826 ft | 420 kts | 315° |
| 2026-04-20 02:02 | 21.00556 | -99.75776 | 29055 ft | 421 kts | 314° |
| 2026-04-20 02:02 | 21.02659 | -99.77941 | 29265 ft | 421 kts | 310° |
| 2026-04-20 02:02 | 21.04623 | -99.80263 | 29496 ft | 421 kts | 306° |
| 2026-04-20 02:02 | 21.06445 | -99.82745 | 29753 ft | 420 kts | 302° |
| 2026-04-20 02:03 | 21.08129 | -99.85288 | 29997 ft | 420 kts | 301° |
| 2026-04-20 02:03 | 21.09801 | -99.87857 | 30237 ft | 421 kts | 301° |
| 2026-04-20 02:03 | 21.11497 | -99.90472 | 30481 ft | 422 kts | 301° |
| 2026-04-20 02:03 | 21.13168 | -99.93047 | 30700 ft | 423 kts | 301° |
| 2026-04-20 02:04 | 21.14835 | -99.95616 | 30920 ft | 424 kts | 301° |
| 2026-04-20 02:04 | 21.16525 | -99.98220 | 31170 ft | 424 kts | 301° |
| 2026-04-20 02:04 | 21.18210 | -100.00817 | 31459 ft | 423 kts | 301° |
| 2026-04-20 02:04 | 21.19868 | -100.03371 | 31748 ft | 422 kts | 301° |
| 2026-04-20 02:05 | 21.21540 | -100.05947 | 32042 ft | 420 kts | 301° |
| 2026-04-20 02:05 | 21.23242 | -100.08574 | 32347 ft | 418 kts | 301° |
| 2026-04-20 02:05 | 21.24884 | -100.11106 | 32621 ft | 417 kts | 300° |
| 2026-04-20 02:05 | 21.26549 | -100.13676 | 32814 ft | 418 kts | 300° |
| 2026-04-20 02:06 | 21.28217 | -100.16253 | 32960 ft | 419 kts | 300° |
| 2026-04-20 02:06 | 21.29883 | -100.18832 | 33139 ft | 420 kts | 300° |
| 2026-04-20 02:06 | 21.31539 | -100.21389 | 33365 ft | 420 kts | 300° |
| 2026-04-20 02:06 | 21.33192 | -100.23949 | 33558 ft | 420 kts | 300° |
| 2026-04-20 02:07 | 21.34875 | -100.26553 | 33735 ft | 421 kts | 300° |
| 2026-04-20 02:07 | 21.36540 | -100.29131 | 33901 ft | 422 kts | 300° |
| 2026-04-20 02:07 | 21.38190 | -100.31686 | 34060 ft | 422 kts | 300° |
| 2026-04-20 02:07 | 21.39878 | -100.34304 | 34223 ft | 423 kts | 300° |
| 2026-04-20 02:08 | 21.43198 | -100.39450 | 34363 ft | 425 kts | 300° |
| 2026-04-20 02:08 | 21.46576 | -100.44692 | 34368 ft | 425 kts | 300° |
| 2026-04-20 02:09 | 21.49905 | -100.49863 | 34375 ft | 425 kts | 300° |
| 2026-04-20 02:09 | 21.53280 | -100.55113 | 34377 ft | 426 kts | 300° |
| 2026-04-20 02:10 | 21.56625 | -100.60319 | 34378 ft | 425 kts | 300° |
| 2026-04-20 02:10 | 21.59984 | -100.65552 | 34379 ft | 424 kts | 300° |
| 2026-04-20 02:11 | 21.63328 | -100.70768 | 34379 ft | 424 kts | 300° |
| 2026-04-20 02:11 | 21.66677 | -100.75994 | 34381 ft | 424 kts | 300° |
| 2026-04-20 02:12 | 21.69995 | -100.81181 | 34385 ft | 424 kts | 300° |
| 2026-04-20 02:12 | 21.73345 | -100.86420 | 34390 ft | 423 kts | 300° |
| 2026-04-20 02:13 | 21.76661 | -100.91610 | 34387 ft | 423 kts | 300° |
| 2026-04-20 02:13 | 21.79986 | -100.96822 | 34388 ft | 423 kts | 300° |
| 2026-04-20 02:14 | 21.83320 | -101.02053 | 34388 ft | 424 kts | 300° |
| 2026-04-20 02:14 | 21.86660 | -101.07299 | 34401 ft | 424 kts | 300° |
| 2026-04-20 02:15 | 21.89989 | -101.12533 | 34411 ft | 423 kts | 300° |
| 2026-04-20 02:15 | 21.93314 | -101.17767 | 34413 ft | 424 kts | 300° |
| 2026-04-20 02:16 | 21.96632 | -101.22997 | 34415 ft | 424 kts | 300° |
| 2026-04-20 02:16 | 21.99954 | -101.28233 | 34407 ft | 425 kts | 300° |
| 2026-04-20 02:17 | 22.03322 | -101.33510 | 34410 ft | 427 kts | 300° |
| 2026-04-20 02:17 | 22.06689 | -101.38786 | 34416 ft | 428 kts | 300° |
| 2026-04-20 02:18 | 22.10057 | -101.44075 | 34422 ft | 428 kts | 300° |
| 2026-04-20 02:18 | 22.13417 | -101.49356 | 34432 ft | 429 kts | 300° |
| 2026-04-20 02:19 | 22.16782 | -101.54653 | 34446 ft | 428 kts | 300° |
| 2026-04-20 02:19 | 22.20159 | -101.59979 | 34436 ft | 430 kts | 300° |
| 2026-04-20 02:20 | 22.23521 | -101.65283 | 34433 ft | 430 kts | 299° |
| 2026-04-20 02:20 | 22.26940 | -101.70682 | 34415 ft | 432 kts | 299° |
| 2026-04-20 02:21 | 22.32054 | -101.78770 | 34407 ft | 433 kts | 299° |
| 2026-04-20 02:22 | 22.35443 | -101.84135 | 34395 ft | 433 kts | 299° |
| 2026-04-20 02:22 | 22.38830 | -101.89504 | 34393 ft | 434 kts | 299° |
| 2026-04-20 02:23 | 22.42224 | -101.94889 | 34389 ft | 435 kts | 299° |
| 2026-04-20 02:23 | 22.45647 | -102.00325 | 34384 ft | 436 kts | 299° |
| 2026-04-20 02:24 | 22.49036 | -102.05712 | 34387 ft | 436 kts | 299° |
| 2026-04-20 02:24 | 22.52447 | -102.11142 | 34389 ft | 434 kts | 299° |
| 2026-04-20 02:25 | 22.55826 | -102.16522 | 34386 ft | 435 kts | 299° |
| 2026-04-20 02:25 | 22.59251 | -102.21986 | 34387 ft | 435 kts | 299° |
| 2026-04-20 02:26 | 22.62651 | -102.27414 | 34390 ft | 435 kts | 298° |
| 2026-04-20 02:26 | 22.66034 | -102.32819 | 34399 ft | 435 kts | 298° |
| 2026-04-20 02:27 | 22.69430 | -102.38253 | 34411 ft | 434 kts | 298° |
| 2026-04-20 02:27 | 22.72822 | -102.43687 | 34418 ft | 436 kts | 298° |
| 2026-04-20 02:28 | 22.76199 | -102.49103 | 34426 ft | 435 kts | 298° |
| 2026-04-20 02:28 | 22.79578 | -102.54533 | 34428 ft | 435 kts | 298° |
| 2026-04-20 02:29 | 22.82936 | -102.59933 | 34422 ft | 435 kts | 298° |
| 2026-04-20 02:29 | 22.86299 | -102.65408 | 34428 ft | 434 kts | 296° |
| 2026-04-20 02:30 | 22.89186 | -102.71070 | 34426 ft | 428 kts | 289° |
| 2026-04-20 02:30 | 22.91498 | -102.76996 | 34427 ft | 425 kts | 285° |
| 2026-04-20 02:31 | 22.93602 | -102.82950 | 34437 ft | 425 kts | 285° |
| 2026-04-20 02:31 | 22.95714 | -102.88944 | 34453 ft | 425 kts | 285° |
| 2026-04-20 02:32 | 22.97827 | -102.94943 | 34470 ft | 426 kts | 285° |
| 2026-04-20 02:32 | 22.99943 | -103.00956 | 34492 ft | 425 kts | 285° |
| 2026-04-20 02:33 | 23.02055 | -103.06964 | 34487 ft | 424 kts | 285° |
| 2026-04-20 02:33 | 23.04160 | -103.12962 | 34469 ft | 424 kts | 285° |
| 2026-04-20 02:34 | 23.06262 | -103.18958 | 34454 ft | 423 kts | 285° |
| 2026-04-20 02:34 | 23.08351 | -103.24927 | 34441 ft | 423 kts | 285° |
| 2026-04-20 02:35 | 23.10452 | -103.30931 | 34430 ft | 423 kts | 284° |
| 2026-04-20 02:35 | 23.12528 | -103.36877 | 34422 ft | 422 kts | 284° |
| 2026-04-20 02:36 | 23.14597 | -103.42818 | 34433 ft | 422 kts | 285° |
| 2026-04-20 02:36 | 23.16672 | -103.48776 | 34445 ft | 422 kts | 285° |
| 2026-04-20 02:37 | 23.18736 | -103.54717 | 34447 ft | 420 kts | 285° |
| 2026-04-20 02:37 | 23.20801 | -103.60659 | 34440 ft | 420 kts | 285° |
| 2026-04-20 02:38 | 23.22856 | -103.66591 | 34444 ft | 419 kts | 284° |
| 2026-04-20 02:38 | 23.24904 | -103.72508 | 34432 ft | 418 kts | 284° |
| 2026-04-20 02:39 | 23.26945 | -103.78410 | 34430 ft | 418 kts | 284° |
| 2026-04-20 02:39 | 23.28984 | -103.84316 | 34426 ft | 417 kts | 284° |
| 2026-04-20 02:40 | 23.31004 | -103.90177 | 34422 ft | 417 kts | 284° |
| 2026-04-20 02:40 | 23.33059 | -103.96154 | 34434 ft | 417 kts | 284° |
| 2026-04-20 02:41 | 23.35095 | -104.02081 | 34421 ft | 416 kts | 284° |
| 2026-04-20 02:41 | 23.37125 | -104.07949 | 34424 ft | 416 kts | 285° |
| 2026-04-20 02:42 | 23.39637 | -104.13672 | 34430 ft | 423 kts | 292° |
| 2026-04-20 02:42 | 23.42842 | -104.19111 | 34434 ft | 429 kts | 299° |
| 2026-04-20 02:43 | 23.46677 | -104.24102 | 34453 ft | 436 kts | 306° |
| 2026-04-20 02:43 | 23.50929 | -104.28875 | 34451 ft | 437 kts | 307° |
| 2026-04-20 02:44 | 23.55217 | -104.33656 | 34434 ft | 436 kts | 307° |
| 2026-04-20 02:44 | 23.59487 | -104.38424 | 34410 ft | 437 kts | 307° |
| 2026-04-20 02:45 | 23.63774 | -104.43224 | 34393 ft | 436 kts | 307° |
| 2026-04-20 02:45 | 23.68025 | -104.47987 | 34390 ft | 436 kts | 307° |
| 2026-04-20 02:46 | 23.72256 | -104.52732 | 34404 ft | 436 kts | 306° |
| 2026-04-20 02:46 | 23.76499 | -104.57500 | 34414 ft | 436 kts | 306° |
| 2026-04-20 02:47 | 23.80747 | -104.62277 | 34411 ft | 436 kts | 306° |
| 2026-04-20 02:47 | 23.84979 | -104.67038 | 34405 ft | 436 kts | 306° |
| 2026-04-20 02:48 | 23.89193 | -104.71786 | 34409 ft | 436 kts | 306° |
| 2026-04-20 02:48 | 23.93433 | -104.76569 | 34411 ft | 436 kts | 306° |
| 2026-04-20 02:49 | 23.97673 | -104.81353 | 34418 ft | 436 kts | 306° |
| 2026-04-20 02:49 | 24.01903 | -104.86131 | 34436 ft | 437 kts | 306° |
| 2026-04-20 02:50 | 24.06131 | -104.90914 | 34465 ft | 437 kts | 306° |
| 2026-04-20 02:50 | 24.10396 | -104.95742 | 34466 ft | 439 kts | 306° |
| 2026-04-20 02:51 | 24.14623 | -105.00534 | 34477 ft | 438 kts | 306° |
| 2026-04-20 02:51 | 24.18857 | -105.05338 | 34478 ft | 439 kts | 306° |
| 2026-04-20 02:52 | 24.23091 | -105.10146 | 34466 ft | 437 kts | 306° |
| 2026-04-20 02:52 | 24.27319 | -105.14949 | 34469 ft | 436 kts | 306° |
| 2026-04-20 02:53 | 24.31500 | -105.19711 | 34460 ft | 436 kts | 306° |
| 2026-04-20 02:53 | 24.35708 | -105.24504 | 34447 ft | 436 kts | 306° |
| 2026-04-20 02:54 | 24.39919 | -105.29308 | 34439 ft | 436 kts | 306° |
| 2026-04-20 02:54 | 24.44137 | -105.34123 | 34439 ft | 437 kts | 307° |
| 2026-04-20 02:55 | 24.48375 | -105.38965 | 34448 ft | 435 kts | 306° |
| 2026-04-20 02:55 | 24.52558 | -105.43749 | 34455 ft | 436 kts | 307° |
| 2026-04-20 02:56 | 24.56757 | -105.48556 | 34458 ft | 436 kts | 307° |
| 2026-04-20 02:56 | 24.60977 | -105.53393 | 34467 ft | 435 kts | 306° |
| 2026-04-20 02:57 | 24.65159 | -105.58193 | 34472 ft | 436 kts | 307° |
| 2026-04-20 02:57 | 24.69351 | -105.63009 | 34466 ft | 436 kts | 307° |
| 2026-04-20 02:58 | 24.73551 | -105.67839 | 34459 ft | 436 kts | 306° |
| 2026-04-20 02:58 | 24.77708 | -105.72623 | 34450 ft | 435 kts | 306° |
| 2026-04-20 02:59 | 24.81922 | -105.77482 | 34456 ft | 437 kts | 306° |
| 2026-04-20 02:59 | 24.86081 | -105.82276 | 34459 ft | 435 kts | 306° |
| 2026-04-20 03:00 | 24.90262 | -105.87106 | 34460 ft | 435 kts | 306° |
| 2026-04-20 03:00 | 24.94460 | -105.91962 | 34474 ft | 435 kts | 306° |
| 2026-04-20 03:01 | 24.98665 | -105.96833 | 34480 ft | 434 kts | 306° |
| 2026-04-20 03:01 | 25.02819 | -106.01646 | 34486 ft | 434 kts | 306° |
| 2026-04-20 03:02 | 25.07011 | -106.06503 | 34474 ft | 434 kts | 306° |
| 2026-04-20 03:02 | 25.11177 | -106.11332 | 34463 ft | 433 kts | 306° |
| 2026-04-20 03:03 | 25.15302 | -106.16126 | 34452 ft | 433 kts | 306° |
| 2026-04-20 03:03 | 25.19459 | -106.20961 | 34456 ft | 434 kts | 306° |
| 2026-04-20 03:04 | 25.23611 | -106.25797 | 34452 ft | 434 kts | 306° |
| 2026-04-20 03:04 | 25.27731 | -106.30605 | 34438 ft | 432 kts | 306° |
| 2026-04-20 03:05 | 25.31901 | -106.35474 | 34431 ft | 432 kts | 306° |
| 2026-04-20 03:05 | 25.36063 | -106.40340 | 34429 ft | 432 kts | 306° |
| 2026-04-20 03:06 | 25.40200 | -106.45180 | 34415 ft | 432 kts | 306° |
| 2026-04-20 03:06 | 25.44301 | -106.49984 | 34399 ft | 432 kts | 307° |
| 2026-04-20 03:07 | 25.48435 | -106.54833 | 34406 ft | 433 kts | 307° |
| 2026-04-20 03:07 | 25.52581 | -106.59699 | 34394 ft | 433 kts | 307° |
| 2026-04-20 03:08 | 25.56709 | -106.64551 | 34403 ft | 433 kts | 307° |
| 2026-04-20 03:08 | 25.60864 | -106.69437 | 34401 ft | 431 kts | 306° |
| 2026-04-20 03:09 | 25.64956 | -106.74260 | 34372 ft | 431 kts | 307° |
| 2026-04-20 03:09 | 25.69068 | -106.79105 | 34378 ft | 430 kts | 307° |
| 2026-04-20 03:10 | 25.73182 | -106.83959 | 34355 ft | 430 kts | 307° |
| 2026-04-20 03:10 | 25.77307 | -106.88836 | 34340 ft | 431 kts | 307° |
| 2026-04-20 03:11 | 25.81444 | -106.93727 | 34336 ft | 431 kts | 306° |
| 2026-04-20 03:11 | 25.85570 | -106.98614 | 34346 ft | 432 kts | 307° |
| 2026-04-20 03:12 | 25.89717 | -107.03531 | 34346 ft | 431 kts | 307° |
| 2026-04-20 03:12 | 25.93832 | -107.08415 | 34348 ft | 430 kts | 307° |
| 2026-04-20 03:13 | 25.97918 | -107.13268 | 34342 ft | 429 kts | 307° |
| 2026-04-20 03:13 | 26.02005 | -107.18130 | 34333 ft | 429 kts | 307° |
| 2026-04-20 03:14 | 26.06093 | -107.22999 | 34314 ft | 428 kts | 307° |
| 2026-04-20 03:14 | 26.10169 | -107.27856 | 34297 ft | 428 kts | 307° |
| 2026-04-20 03:15 | 26.14283 | -107.32764 | 34304 ft | 428 kts | 307° |
| 2026-04-20 03:15 | 26.18395 | -107.37678 | 34301 ft | 429 kts | 307° |
| 2026-04-20 03:16 | 26.22460 | -107.42539 | 34295 ft | 429 kts | 307° |
| 2026-04-20 03:16 | 26.26515 | -107.47396 | 34302 ft | 428 kts | 307° |
| 2026-04-20 03:17 | 26.30562 | -107.52245 | 34289 ft | 427 kts | 307° |
| 2026-04-20 03:17 | 26.34613 | -107.57107 | 34273 ft | 427 kts | 307° |
| 2026-04-20 03:18 | 26.38693 | -107.62009 | 34239 ft | 427 kts | 307° |
| 2026-04-20 03:18 | 26.42718 | -107.66852 | 34252 ft | 427 kts | 307° |
| 2026-04-20 03:19 | 26.46787 | -107.71748 | 34257 ft | 428 kts | 307° |
| 2026-04-20 03:19 | 26.50841 | -107.76640 | 34264 ft | 427 kts | 307° |
| 2026-04-20 03:20 | 26.54884 | -107.81517 | 34263 ft | 427 kts | 307° |
| 2026-04-20 03:20 | 26.58923 | -107.86398 | 34243 ft | 428 kts | 307° |
| 2026-04-20 03:21 | 26.62985 | -107.91312 | 34240 ft | 428 kts | 307° |
| 2026-04-20 03:21 | 26.67058 | -107.96248 | 34238 ft | 429 kts | 307° |
| 2026-04-20 03:22 | 26.71093 | -108.01141 | 34238 ft | 427 kts | 307° |
| 2026-04-20 03:22 | 26.75115 | -108.06018 | 34235 ft | 427 kts | 307° |
| 2026-04-20 03:23 | 26.79131 | -108.10891 | 34188 ft | 427 kts | 307° |
| 2026-04-20 03:23 | 26.83137 | -108.15762 | 34146 ft | 427 kts | 307° |
| 2026-04-20 03:23 | 26.85136 | -108.18195 | 34042 ft | 427 kts | 307° |
| 2026-04-20 03:24 | 26.87166 | -108.20670 | 34049 ft | 428 kts | 307° |
| 2026-04-20 03:24 | 26.91190 | -108.25580 | 34087 ft | 428 kts | 307° |
| 2026-04-20 03:25 | 26.95213 | -108.30491 | 34110 ft | 428 kts | 307° |
| 2026-04-20 03:25 | 26.99219 | -108.35387 | 34072 ft | 428 kts | 307° |
| 2026-04-20 03:26 | 27.03238 | -108.40309 | 34076 ft | 427 kts | 307° |
| 2026-04-20 03:26 | 27.07240 | -108.45216 | 34066 ft | 427 kts | 307° |
| 2026-04-20 03:27 | 27.11264 | -108.50153 | 34086 ft | 428 kts | 307° |
| 2026-04-20 03:27 | 27.15268 | -108.55069 | 34075 ft | 428 kts | 307° |
| 2026-04-20 03:28 | 27.19287 | -108.60010 | 34083 ft | 428 kts | 307° |
| 2026-04-20 03:28 | 27.25301 | -108.67417 | 34087 ft | 428 kts | 306° |
| 2026-04-20 03:29 | 27.29307 | -108.72358 | 34090 ft | 428 kts | 306° |
| 2026-04-20 03:29 | 27.33318 | -108.77312 | 34095 ft | 428 kts | 307° |
| 2026-04-20 03:30 | 27.37325 | -108.82265 | 34102 ft | 427 kts | 307° |
| 2026-04-20 03:30 | 27.41302 | -108.87184 | 34101 ft | 428 kts | 306° |
| 2026-04-20 03:31 | 27.43316 | -108.89680 | 34202 ft | 426 kts | 306° |
| 2026-04-20 03:31 | 27.45297 | -108.92133 | 34145 ft | 426 kts | 306° |
| 2026-04-20 03:31 | 27.49280 | -108.97073 | 34120 ft | 426 kts | 306° |
| 2026-04-20 03:32 | 27.53307 | -109.02078 | 33974 ft | 427 kts | 306° |
| 2026-04-20 03:32 | 27.57332 | -109.07082 | 34108 ft | 427 kts | 306° |
| 2026-04-20 03:33 | 27.61309 | -109.12034 | 34085 ft | 427 kts | 306° |
| 2026-04-20 03:33 | 27.65299 | -109.17005 | 34080 ft | 427 kts | 306° |
| 2026-04-20 03:34 | 27.69272 | -109.21962 | 34066 ft | 427 kts | 306° |
| 2026-04-20 03:34 | 27.73254 | -109.26935 | 34060 ft | 428 kts | 306° |
| 2026-04-20 03:35 | 27.77225 | -109.31901 | 34028 ft | 428 kts | 306° |
| 2026-04-20 03:35 | 27.81241 | -109.36930 | 34050 ft | 428 kts | 306° |
| 2026-04-20 03:36 | 27.85221 | -109.41922 | 34069 ft | 428 kts | 306° |
| 2026-04-20 03:36 | 27.89204 | -109.46920 | 34023 ft | 428 kts | 306° |
| 2026-04-20 03:37 | 27.93194 | -109.51936 | 34024 ft | 430 kts | 306° |
| 2026-04-20 03:37 | 27.95196 | -109.54452 | 34127 ft | 429 kts | 306° |
| 2026-04-20 03:37 | 27.97180 | -109.56950 | 34074 ft | 428 kts | 306° |
| 2026-04-20 03:38 | 28.01151 | -109.61952 | 34024 ft | 428 kts | 306° |
| 2026-04-20 03:38 | 28.05114 | -109.66949 | 34009 ft | 429 kts | 306° |
| 2026-04-20 03:39 | 28.09105 | -109.71986 | 33995 ft | 428 kts | 306° |
| 2026-04-20 03:39 | 28.13109 | -109.77048 | 33986 ft | 428 kts | 306° |
| 2026-04-20 03:40 | 28.17066 | -109.82059 | 33987 ft | 429 kts | 306° |
| 2026-04-20 03:40 | 28.21053 | -109.87110 | 33984 ft | 428 kts | 306° |
| 2026-04-20 03:41 | 28.25000 | -109.92117 | 33981 ft | 429 kts | 306° |
| 2026-04-20 03:41 | 28.28972 | -109.97163 | 33981 ft | 429 kts | 306° |
| 2026-04-20 03:42 | 28.32948 | -110.02225 | 33976 ft | 429 kts | 306° |
| 2026-04-20 03:42 | 28.36910 | -110.07265 | 33977 ft | 430 kts | 306° |
| 2026-04-20 03:43 | 28.40908 | -110.12363 | 33978 ft | 429 kts | 306° |
| 2026-04-20 03:43 | 28.44910 | -110.17474 | 33979 ft | 430 kts | 306° |
| 2026-04-20 03:44 | 28.48858 | -110.22520 | 33979 ft | 429 kts | 306° |
| 2026-04-20 03:44 | 28.52831 | -110.27602 | 33981 ft | 429 kts | 306° |
| 2026-04-20 03:45 | 28.56786 | -110.32670 | 33984 ft | 429 kts | 306° |
| 2026-04-20 03:45 | 28.60825 | -110.37851 | 33980 ft | 430 kts | 306° |
| 2026-04-20 03:46 | 28.64858 | -110.43031 | 33990 ft | 430 kts | 306° |
| 2026-04-20 03:46 | 28.68821 | -110.48127 | 33992 ft | 429 kts | 306° |
| 2026-04-20 03:47 | 28.72783 | -110.53231 | 33991 ft | 430 kts | 306° |
| 2026-04-20 03:47 | 28.76823 | -110.58440 | 33991 ft | 431 kts | 306° |
| 2026-04-20 03:48 | 28.80818 | -110.63599 | 33985 ft | 432 kts | 306° |
| 2026-04-20 03:48 | 28.84768 | -110.68704 | 33977 ft | 430 kts | 305° |
| 2026-04-20 03:49 | 28.88721 | -110.73819 | 33969 ft | 430 kts | 305° |
| 2026-04-20 03:49 | 28.92675 | -110.78945 | 33961 ft | 430 kts | 305° |
| 2026-04-20 03:50 | 28.96625 | -110.84072 | 33958 ft | 430 kts | 305° |
| 2026-04-20 03:50 | 29.00577 | -110.89208 | 33956 ft | 431 kts | 305° |
| 2026-04-20 03:51 | 29.04527 | -110.94351 | 33955 ft | 431 kts | 305° |
| 2026-04-20 03:51 | 29.08487 | -110.99509 | 33966 ft | 431 kts | 305° |
| 2026-04-20 03:52 | 29.12442 | -111.04654 | 33976 ft | 431 kts | 305° |
| 2026-04-20 03:52 | 29.16385 | -111.09789 | 33978 ft | 431 kts | 305° |
| 2026-04-20 03:53 | 29.20359 | -111.14977 | 33976 ft | 431 kts | 305° |
| 2026-04-20 03:53 | 29.24313 | -111.20145 | 33973 ft | 431 kts | 305° |
| 2026-04-20 03:54 | 29.28268 | -111.25325 | 33963 ft | 432 kts | 306° |
| 2026-04-20 03:54 | 29.32212 | -111.30495 | 33963 ft | 432 kts | 305° |
| 2026-04-20 03:55 | 29.36163 | -111.35680 | 33967 ft | 432 kts | 305° |
| 2026-04-20 03:55 | 29.40142 | -111.40910 | 33970 ft | 433 kts | 305° |
| 2026-04-20 03:56 | 29.44166 | -111.46207 | 33974 ft | 433 kts | 306° |
| 2026-04-20 03:56 | 29.48106 | -111.51399 | 33973 ft | 432 kts | 306° |
| 2026-04-20 03:57 | 29.52047 | -111.56599 | 33974 ft | 432 kts | 305° |
| 2026-04-20 03:57 | 29.56064 | -111.61909 | 33977 ft | 432 kts | 306° |
| 2026-04-20 03:58 | 29.60028 | -111.67151 | 33984 ft | 433 kts | 305° |
| 2026-04-20 03:58 | 29.63962 | -111.72365 | 33991 ft | 433 kts | 305° |
| 2026-04-20 03:59 | 29.67899 | -111.77586 | 33994 ft | 433 kts | 305° |
| 2026-04-20 03:59 | 29.71863 | -111.82852 | 34005 ft | 433 kts | 305° |
| 2026-04-20 04:00 | 29.75855 | -111.88161 | 34009 ft | 433 kts | 305° |
| 2026-04-20 04:00 | 29.79801 | -111.93416 | 34005 ft | 433 kts | 305° |
| 2026-04-20 04:01 | 29.83719 | -111.98640 | 34002 ft | 433 kts | 305° |
| 2026-04-20 04:01 | 29.87638 | -112.03873 | 33999 ft | 433 kts | 305° |
| 2026-04-20 04:02 | 29.91589 | -112.09155 | 33994 ft | 433 kts | 305° |
| 2026-04-20 04:02 | 29.95514 | -112.14411 | 33998 ft | 432 kts | 305° |
| 2026-04-20 04:03 | 29.99436 | -112.19669 | 33993 ft | 433 kts | 305° |
| 2026-04-20 04:03 | 30.03437 | -112.25043 | 33999 ft | 434 kts | 306° |
| 2026-04-20 04:04 | 30.07402 | -112.30373 | 33989 ft | 434 kts | 306° |
| 2026-04-20 04:04 | 30.11321 | -112.35645 | 33978 ft | 434 kts | 306° |
| 2026-04-20 04:05 | 30.15285 | -112.40987 | 33977 ft | 434 kts | 306° |
| 2026-04-20 04:05 | 30.19207 | -112.46280 | 33972 ft | 434 kts | 306° |
| 2026-04-20 04:06 | 30.23146 | -112.51601 | 33934 ft | 434 kts | 306° |
| 2026-04-20 04:06 | 30.27084 | -112.56933 | 33967 ft | 434 kts | 306° |
| 2026-04-20 04:07 | 30.31034 | -112.62284 | 33961 ft | 433 kts | 306° |
| 2026-04-20 04:07 | 30.34937 | -112.67581 | 33948 ft | 433 kts | 305° |
| 2026-04-20 04:08 | 30.38833 | -112.72876 | 33927 ft | 434 kts | 306° |
| 2026-04-20 04:08 | 30.42753 | -112.78210 | 33917 ft | 434 kts | 306° |
| 2026-04-20 04:09 | 30.46656 | -112.83527 | 33904 ft | 434 kts | 306° |
| 2026-04-20 04:09 | 30.50606 | -112.88914 | 33896 ft | 434 kts | 306° |
| 2026-04-20 04:10 | 30.54539 | -112.94288 | 33877 ft | 434 kts | 306° |
| 2026-04-20 04:10 | 30.58465 | -112.99658 | 33874 ft | 434 kts | 306° |
| 2026-04-20 04:11 | 30.62382 | -113.05023 | 33877 ft | 434 kts | 306° |
| 2026-04-20 04:11 | 30.66282 | -113.10372 | 33882 ft | 434 kts | 306° |
| 2026-04-20 04:12 | 30.70199 | -113.15753 | 33889 ft | 434 kts | 306° |
| 2026-04-20 04:12 | 30.74119 | -113.21146 | 33884 ft | 435 kts | 306° |
| 2026-04-20 04:13 | 30.78039 | -113.26547 | 33890 ft | 434 kts | 306° |
| 2026-04-20 04:13 | 30.81956 | -113.31947 | 33881 ft | 434 kts | 306° |
| 2026-04-20 04:14 | 30.85834 | -113.37305 | 33889 ft | 434 kts | 306° |
| 2026-04-20 04:14 | 30.89721 | -113.42683 | 33897 ft | 433 kts | 306° |
| 2026-04-20 04:15 | 30.93577 | -113.48022 | 33881 ft | 433 kts | 306° |
| 2026-04-20 04:15 | 30.97473 | -113.53426 | 33899 ft | 434 kts | 306° |
| 2026-04-20 04:16 | 31.01343 | -113.58800 | 33884 ft | 434 kts | 306° |
| 2026-04-20 04:16 | 31.05227 | -113.64202 | 33877 ft | 434 kts | 306° |
| 2026-04-20 04:17 | 31.09098 | -113.69595 | 33872 ft | 434 kts | 306° |
| 2026-04-20 04:17 | 31.12949 | -113.74966 | 33954 ft | 433 kts | 306° |
| 2026-04-20 04:18 | 31.16802 | -113.80347 | 33897 ft | 432 kts | 306° |
| 2026-04-20 04:18 | 31.20685 | -113.85779 | 33879 ft | 432 kts | 306° |
| 2026-04-20 04:19 | 31.24516 | -113.91143 | 33881 ft | 433 kts | 306° |
| 2026-04-20 04:19 | 31.28382 | -113.96565 | 33868 ft | 432 kts | 306° |
| 2026-04-20 04:20 | 31.32221 | -114.01958 | 33869 ft | 432 kts | 306° |
| 2026-04-20 04:20 | 31.36038 | -114.07328 | 33868 ft | 433 kts | 306° |
| 2026-04-20 04:21 | 31.39884 | -114.12746 | 33865 ft | 433 kts | 306° |
| 2026-04-20 04:21 | 31.43720 | -114.18158 | 33872 ft | 432 kts | 306° |
| 2026-04-20 04:22 | 31.47558 | -114.23579 | 33875 ft | 432 kts | 307° |
| 2026-04-20 04:22 | 31.51366 | -114.28965 | 33886 ft | 432 kts | 307° |
| 2026-04-20 04:23 | 31.55241 | -114.34453 | 33884 ft | 431 kts | 307° |
| 2026-04-20 04:23 | 31.59076 | -114.39895 | 33886 ft | 430 kts | 307° |
| 2026-04-20 04:24 | 31.62884 | -114.45305 | 33839 ft | 430 kts | 307° |
| 2026-04-20 04:24 | 31.66684 | -114.50714 | 33879 ft | 430 kts | 307° |
| 2026-04-20 04:25 | 31.70469 | -114.56107 | 33888 ft | 430 kts | 307° |
| 2026-04-20 04:25 | 31.74292 | -114.61563 | 33878 ft | 430 kts | 307° |
| 2026-04-20 04:26 | 31.78093 | -114.67000 | 33887 ft | 430 kts | 306° |
| 2026-04-20 04:26 | 31.81840 | -114.72454 | 33878 ft | 429 kts | 304° |
| 2026-04-20 04:27 | 31.85145 | -114.78256 | 33866 ft | 427 kts | 298° |
| 2026-04-20 04:27 | 31.86594 | -114.81332 | 33737 ft | 427 kts | 295° |
| 2026-04-20 04:27 | 31.87874 | -114.84454 | 33533 ft | 424 kts | 292° |
| 2026-04-20 04:28 | 31.88986 | -114.87599 | 33326 ft | 421 kts | 290° |
| 2026-04-20 04:28 | 31.90037 | -114.90819 | 33064 ft | 420 kts | 290° |
| 2026-04-20 04:28 | 31.91066 | -114.94003 | 32705 ft | 417 kts | 290° |
| 2026-04-20 04:28 | 31.92091 | -114.97182 | 32201 ft | 416 kts | 290° |
| 2026-04-20 04:29 | 31.93116 | -115.00365 | 31587 ft | 418 kts | 290° |
| 2026-04-20 04:29 | 31.94142 | -115.03547 | 30888 ft | 422 kts | 290° |
| 2026-04-20 04:29 | 31.95190 | -115.06803 | 30142 ft | 426 kts | 290° |
| 2026-04-20 04:29 | 31.96240 | -115.10064 | 29376 ft | 428 kts | 290° |
| 2026-04-20 04:30 | 31.97283 | -115.13301 | 28827 ft | 424 kts | 290° |
| 2026-04-20 04:30 | 31.98324 | -115.16539 | 28296 ft | 420 kts | 290° |
| 2026-04-20 04:30 | 31.99338 | -115.19696 | 27804 ft | 416 kts | 290° |
| 2026-04-20 04:30 | 32.00354 | -115.22868 | 27321 ft | 411 kts | 290° |
| 2026-04-20 04:31 | 32.01355 | -115.25990 | 26849 ft | 406 kts | 290° |
| 2026-04-20 04:31 | 32.02337 | -115.29057 | 26352 ft | 403 kts | 290° |
| 2026-04-20 04:31 | 32.03322 | -115.32139 | 25864 ft | 399 kts | 290° |
| 2026-04-20 04:31 | 32.04293 | -115.35177 | 25398 ft | 394 kts | 290° |
| 2026-04-20 04:32 | 32.05250 | -115.38175 | 24931 ft | 390 kts | 290° |
| 2026-04-20 04:32 | 32.06191 | -115.41126 | 24469 ft | 387 kts | 290° |
| 2026-04-20 04:32 | 32.07127 | -115.44066 | 23999 ft | 383 kts | 290° |
| 2026-04-20 04:32 | 32.08066 | -115.47016 | 23516 ft | 380 kts | 290° |
| 2026-04-20 04:33 | 32.08989 | -115.49921 | 23030 ft | 377 kts | 290° |
| 2026-04-20 04:33 | 32.09900 | -115.52790 | 22595 ft | 373 kts | 290° |
| 2026-04-20 04:33 | 32.10811 | -115.55663 | 22140 ft | 371 kts | 290° |
| 2026-04-20 04:33 | 32.11719 | -115.58534 | 21659 ft | 369 kts | 290° |
| 2026-04-20 04:34 | 32.12607 | -115.61342 | 21162 ft | 368 kts | 290° |
| 2026-04-20 04:34 | 32.13499 | -115.64159 | 20709 ft | 367 kts | 290° |
| 2026-04-20 04:34 | 32.14403 | -115.67005 | 20228 ft | 366 kts | 289° |
| 2026-04-20 04:34 | 32.15292 | -115.69813 | 19733 ft | 366 kts | 289° |
| 2026-04-20 04:35 | 32.16176 | -115.72606 | 19262 ft | 366 kts | 289° |
| 2026-04-20 04:35 | 32.17061 | -115.75421 | 18791 ft | 365 kts | 289° |
| 2026-04-20 04:35 | 32.17945 | -115.78231 | 18318 ft | 365 kts | 289° |
| 2026-04-20 04:35 | 32.18822 | -115.81019 | 17850 ft | 365 kts | 289° |
| 2026-04-20 04:36 | 32.20576 | -115.86615 | 16914 ft | 366 kts | 289° |
| 2026-04-20 04:36 | 32.21457 | -115.89432 | 16458 ft | 366 kts | 289° |
| 2026-04-20 04:36 | 32.22336 | -115.92242 | 16009 ft | 365 kts | 289° |
| 2026-04-20 04:37 | 32.23214 | -115.95055 | 15562 ft | 365 kts | 289° |
| 2026-04-20 04:37 | 32.24082 | -115.97829 | 15122 ft | 364 kts | 289° |
| 2026-04-20 04:37 | 32.24967 | -116.00664 | 14663 ft | 363 kts | 289° |
| 2026-04-20 04:37 | 32.25831 | -116.03437 | 14200 ft | 363 kts | 289° |
| 2026-04-20 04:38 | 32.26701 | -116.06229 | 13730 ft | 362 kts | 289° |
| 2026-04-20 04:38 | 32.27558 | -116.08987 | 13272 ft | 362 kts | 289° |
| 2026-04-20 04:38 | 32.28426 | -116.11777 | 12792 ft | 361 kts | 289° |
| 2026-04-20 04:38 | 32.29296 | -116.14575 | 12290 ft | 362 kts | 289° |
| 2026-04-20 04:39 | 32.30153 | -116.17339 | 11796 ft | 362 kts | 289° |
| 2026-04-20 04:39 | 32.31015 | -116.20121 | 11300 ft | 363 kts | 290° |
| 2026-04-20 04:39 | 32.31884 | -116.22926 | 10816 ft | 363 kts | 290° |
| 2026-04-20 04:39 | 32.32745 | -116.25709 | 10463 ft | 357 kts | 290° |
| 2026-04-20 04:40 | 32.33581 | -116.28413 | 10247 ft | 348 kts | 290° |
| 2026-04-20 04:40 | 32.34402 | -116.31068 | 10107 ft | 337 kts | 289° |
| 2026-04-20 04:40 | 32.35191 | -116.33621 | 9896 ft | 329 kts | 289° |
| 2026-04-20 04:40 | 32.35968 | -116.36141 | 9614 ft | 324 kts | 289° |
| 2026-04-20 04:41 | 32.36729 | -116.38613 | 9333 ft | 320 kts | 289° |
| 2026-04-20 04:41 | 32.37487 | -116.41073 | 9011 ft | 314 kts | 289° |
| 2026-04-20 04:41 | 32.38229 | -116.43482 | 8592 ft | 309 kts | 289° |
| 2026-04-20 04:41 | 32.38951 | -116.45829 | 8184 ft | 303 kts | 289° |
| 2026-04-20 04:42 | 32.39596 | -116.48169 | 7768 ft | 297 kts | 284° |
| 2026-04-20 04:42 | 32.40037 | -116.50537 | 7330 ft | 292 kts | 278° |
| 2026-04-20 04:42 | 32.40357 | -116.52889 | 6940 ft | 286 kts | 278° |
| 2026-04-20 04:42 | 32.40654 | -116.55185 | 6579 ft | 284 kts | 278° |
| 2026-04-20 04:43 | 32.40956 | -116.57506 | 6226 ft | 285 kts | 278° |
| 2026-04-20 04:43 | 32.41257 | -116.59800 | 5888 ft | 285 kts | 278° |
| 2026-04-20 04:43 | 32.41564 | -116.62102 | 5536 ft | 285 kts | 278° |
| 2026-04-20 04:43 | 32.41898 | -116.64419 | 5231 ft | 283 kts | 281° |
| 2026-04-20 04:44 | 32.42380 | -116.66634 | 5193 ft | 270 kts | 285° |
| 2026-04-20 04:44 | 32.42915 | -116.68714 | 5147 ft | 259 kts | 286° |
| 2026-04-20 04:44 | 32.43438 | -116.70710 | 5048 ft | 249 kts | 286° |
| 2026-04-20 04:44 | 32.43941 | -116.72637 | 4855 ft | 245 kts | 286° |
| 2026-04-20 04:45 | 32.44445 | -116.74572 | 4539 ft | 247 kts | 286° |
| 2026-04-20 04:45 | 32.44950 | -116.76519 | 4206 ft | 247 kts | 287° |
| 2026-04-20 04:45 | 32.45452 | -116.78458 | 3878 ft | 244 kts | 287° |
| 2026-04-20 04:45 | 32.45938 | -116.80342 | 3557 ft | 240 kts | 287° |
| 2026-04-20 04:46 | 32.46437 | -116.82220 | 3237 ft | 236 kts | 291° |
| 2026-04-20 04:46 | 32.47289 | -116.83852 | 2920 ft | 229 kts | 314° |
| 2026-04-20 04:46 | 32.48526 | -116.84964 | 2636 ft | 216 kts | 333° |
| 2026-04-20 04:46 | 32.49845 | -116.85609 | 2450 ft | 200 kts | 339° |
| 2026-04-20 04:47 | 32.51107 | -116.86195 | 2164 ft | 189 kts | 333° |
| 2026-04-20 04:47 | 32.52122 | -116.87122 | 1880 ft | 176 kts | 311° |
| 2026-04-20 04:47 | 32.52708 | -116.88306 | 1680 ft | 159 kts | 291° |
| 2026-04-20 04:47 | 32.53037 | -116.89500 | 1430 ft | 147 kts | 282° |
| 2026-04-20 04:48 | 32.53228 | -116.90675 | 1228 ft | 143 kts | 281° |
| 2026-04-20 04:48 | 32.53419 | -116.91822 | 1078 ft | 143 kts | 280° |
| 2026-04-20 04:48 | 32.53583 | -116.92984 | 900 ft | 143 kts | 278° |
| 2026-04-20 04:48 | 32.53738 | -116.94144 | 732 ft | 142 kts | 278° |
| 2026-04-20 04:49 | 32.53883 | -116.95305 | 550 ft | 141 kts | 278° |
| 2026-04-20 04:49 | 32.54038 | -116.96432 | 476 ft | 131 kts | 277° |
| 2026-04-20 04:49 | 32.54146 | -116.97305 | 461 ft | 83 kts | 278° |
| 2026-04-20 04:49 | 32.54207 | -116.97780 | 471 ft | 30 kts | 278° |
| 2026-04-20 04:50 | 32.54235 | -116.98010 | 479 ft | 25 kts | 277° |
| 2026-04-20 04:50 | 32.54258 | -116.98193 | 486 ft | 20 kts | 279° |
| 2026-04-20 04:50 | 32.54279 | -116.98338 | 491 ft | 16 kts | 279° |
| 2026-04-20 04:50 | 32.54297 | -116.98460 | 493 ft | 14 kts | 283° |
| 2026-04-20 04:51 | 32.54368 | -116.98528 | 492 ft | 14 kts | 359° |
| 2026-04-20 04:51 | 32.54458 | -116.98472 | 490 ft | 16 kts | 69° |
| 2026-04-20 04:51 | 32.54451 | -116.98335 | 488 ft | 17 kts | 99° |
| 2026-04-20 04:51 | 32.54429 | -116.98182 | 482 ft | 20 kts | 99° |
| 2026-04-20 04:52 | 32.54406 | -116.98005 | 477 ft | 22 kts | 99° |
| 2026-04-20 04:52 | 32.54385 | -116.97839 | 471 ft | 8 kts | 91° |
| 2026-04-20 04:52 | 32.54416 | -116.97770 | 469 ft | 10 kts | 76° |
| 2026-04-20 04:52 | 32.54410 | -116.97678 | 469 ft | 11 kts | 99° |
| 2026-04-20 04:53 | 32.54413 | -116.97604 | 468 ft | 8 kts | 46° |
| 2026-04-20 04:53 | 32.54459 | -116.97586 | 468 ft | 6 kts | 8° |
| 2026-04-20 04:53 | 32.54498 | -116.97593 | 469 ft | 5 kts | 311° |
| 2026-04-20 04:53 | 32.54508 | -116.97632 | 470 ft | 4 kts | 279° |
| 2026-04-20 04:54 | 32.54510 | -116.97652 | 470 ft | 0 kts | 278° |